sensor_id;sensor_type;location;lat;lon;timestamp;P1;durP1;ratioP1;P2;durP2;ratioP2
12429;SDS011;6279;42.192;24.326;2023-02-10T00:01:12;10.50;;;6.60;;
12429;SDS011;6279;42.192;24.326;2023-02-10T00:03:40;9.90;;;6.40;;
12429;SDS011;6279;42.192;24.326;2023-02-10T00:06:06;10.93;;;6.00;;
12429;SDS011;6279;42.192;24.326;2023-02-10T00:08:33;11.43;;;6.87;;
12429;SDS011;6279;42.192;24.326;2023-02-10T00:11:00;12.20;;;7.07;;
12429;SDS011;6279;42.192;24.326;2023-02-10T00:13:28;11.60;;;7.17;;
12429;SDS011;6279;42.192;24.326;2023-02-10T00:15:54;12.47;;;7.33;;
12429;SDS011;6279;42.192;24.326;2023-02-10T00:18:19;12.07;;;7.47;;
12429;SDS011;6279;42.192;24.326;2023-02-10T00:20:45;13.13;;;7.47;;
12429;SDS011;6279;42.192;24.326;2023-02-10T00:23:11;12.73;;;7.33;;
12429;SDS011;6279;42.192;24.326;2023-02-10T00:25:36;13.53;;;7.13;;
12429;SDS011;6279;42.192;24.326;2023-02-10T00:28:02;12.50;;;7.23;;
12429;SDS011;6279;42.192;24.326;2023-02-10T00:30:28;11.80;;;6.83;;
12429;SDS011;6279;42.192;24.326;2023-02-10T00:32:54;14.50;;;7.87;;
12429;SDS011;6279;42.192;24.326;2023-02-10T00:35:19;14.37;;;8.83;;
12429;SDS011;6279;42.192;24.326;2023-02-10T00:37:44;14.87;;;8.27;;
12429;SDS011;6279;42.192;24.326;2023-02-10T00:40:10;12.27;;;7.70;;
12429;SDS011;6279;42.192;24.326;2023-02-10T00:42:35;14.47;;;8.63;;
12429;SDS011;6279;42.192;24.326;2023-02-10T00:45:01;13.03;;;7.90;;
12429;SDS011;6279;42.192;24.326;2023-02-10T00:47:27;11.47;;;7.27;;
12429;SDS011;6279;42.192;24.326;2023-02-10T00:49:52;14.07;;;7.40;;
12429;SDS011;6279;42.192;24.326;2023-02-10T00:52:18;15.17;;;8.20;;
12429;SDS011;6279;42.192;24.326;2023-02-10T00:54:43;11.03;;;7.37;;
12429;SDS011;6279;42.192;24.326;2023-02-10T00:57:09;12.73;;;7.57;;
12429;SDS011;6279;42.192;24.326;2023-02-10T00:59:34;13.57;;;9.03;;
12429;SDS011;6279;42.192;24.326;2023-02-10T01:02:00;16.60;;;9.13;;
12429;SDS011;6279;42.192;24.326;2023-02-10T01:04:25;19.17;;;9.60;;
12429;SDS011;6279;42.192;24.326;2023-02-10T01:06:51;16.17;;;9.67;;
12429;SDS011;6279;42.192;24.326;2023-02-10T01:09:16;20.10;;;10.77;;
12429;SDS011;6279;42.192;24.326;2023-02-10T01:11:43;20.57;;;10.00;;
12429;SDS011;6279;42.192;24.326;2023-02-10T01:14:08;17.97;;;8.73;;
12429;SDS011;6279;42.192;24.326;2023-02-10T01:16:34;17.47;;;10.37;;
12429;SDS011;6279;42.192;24.326;2023-02-10T01:19:00;11.07;;;7.90;;
12429;SDS011;6279;42.192;24.326;2023-02-10T01:21:26;12.23;;;7.90;;
12429;SDS011;6279;42.192;24.326;2023-02-10T01:23:52;12.97;;;7.90;;
12429;SDS011;6279;42.192;24.326;2023-02-10T01:26:17;15.80;;;7.77;;
12429;SDS011;6279;42.192;24.326;2023-02-10T01:28:44;13.77;;;8.80;;
12429;SDS011;6279;42.192;24.326;2023-02-10T01:31:11;15.30;;;8.47;;
12429;SDS011;6279;42.192;24.326;2023-02-10T01:33:39;16.03;;;9.40;;
12429;SDS011;6279;42.192;24.326;2023-02-10T01:36:05;17.03;;;9.27;;
12429;SDS011;6279;42.192;24.326;2023-02-10T01:38:32;16.07;;;8.80;;
12429;SDS011;6279;42.192;24.326;2023-02-10T01:40:57;10.57;;;6.67;;
12429;SDS011;6279;42.192;24.326;2023-02-10T01:43:23;11.67;;;6.83;;
12429;SDS011;6279;42.192;24.326;2023-02-10T01:45:48;11.83;;;6.70;;
12429;SDS011;6279;42.192;24.326;2023-02-10T01:48:14;11.17;;;6.57;;
12429;SDS011;6279;42.192;24.326;2023-02-10T01:50:41;11.00;;;6.83;;
12429;SDS011;6279;42.192;24.326;2023-02-10T01:53:13;10.20;;;6.63;;
12429;SDS011;6279;42.192;24.326;2023-02-10T01:55:40;11.17;;;6.60;;
12429;SDS011;6279;42.192;24.326;2023-02-10T01:58:10;12.33;;;6.73;;
12429;SDS011;6279;42.192;24.326;2023-02-10T02:00:38;9.90;;;6.53;;
12429;SDS011;6279;42.192;24.326;2023-02-10T02:03:04;10.77;;;6.03;;
12429;SDS011;6279;42.192;24.326;2023-02-10T02:08:03;8.80;;;5.53;;
12429;SDS011;6279;42.192;24.326;2023-02-10T02:10:35;11.30;;;6.57;;
12429;SDS011;6279;42.192;24.326;2023-02-10T02:13:20;9.57;;;6.17;;
12429;SDS011;6279;42.192;24.326;2023-02-10T02:16:09;13.00;;;7.33;;
12429;SDS011;6279;42.192;24.326;2023-02-10T02:32:48;31.20;;;14.53;;
12429;SDS011;6279;42.192;24.326;2023-02-10T02:35:26;24.27;;;10.87;;
12429;SDS011;6279;42.192;24.326;2023-02-10T02:37:56;13.13;;;7.03;;
12429;SDS011;6279;42.192;24.326;2023-02-10T02:40:21;11.90;;;6.43;;
12429;SDS011;6279;42.192;24.326;2023-02-10T02:42:47;12.10;;;6.10;;
12429;SDS011;6279;42.192;24.326;2023-02-10T02:48:24;10.40;;;5.90;;
12429;SDS011;6279;42.192;24.326;2023-02-10T02:51:05;11.57;;;6.47;;
12429;SDS011;6279;42.192;24.326;2023-02-10T02:53:42;13.80;;;7.83;;
12429;SDS011;6279;42.192;24.326;2023-02-10T03:01:38;23.37;;;11.83;;
12429;SDS011;6279;42.192;24.326;2023-02-10T03:04:09;22.67;;;11.40;;
12429;SDS011;6279;42.192;24.326;2023-02-10T03:06:38;20.50;;;9.83;;
12429;SDS011;6279;42.192;24.326;2023-02-10T03:09:04;11.90;;;6.97;;
12429;SDS011;6279;42.192;24.326;2023-02-10T03:11:29;8.20;;;5.27;;
12429;SDS011;6279;42.192;24.326;2023-02-10T03:13:54;13.17;;;7.47;;
12429;SDS011;6279;42.192;24.326;2023-02-10T03:16:20;26.43;;;12.60;;
12429;SDS011;6279;42.192;24.326;2023-02-10T03:18:46;14.93;;;9.00;;
12429;SDS011;6279;42.192;24.326;2023-02-10T03:21:11;12.37;;;7.67;;
12429;SDS011;6279;42.192;24.326;2023-02-10T03:23:36;11.30;;;6.37;;
12429;SDS011;6279;42.192;24.326;2023-02-10T03:26:02;15.23;;;8.30;;
12429;SDS011;6279;42.192;24.326;2023-02-10T03:28:28;16.00;;;8.07;;
12429;SDS011;6279;42.192;24.326;2023-02-10T03:30:53;11.33;;;6.67;;
12429;SDS011;6279;42.192;24.326;2023-02-10T03:33:20;9.67;;;5.97;;
12429;SDS011;6279;42.192;24.326;2023-02-10T03:35:46;10.37;;;5.43;;
12429;SDS011;6279;42.192;24.326;2023-02-10T03:38:12;19.13;;;8.30;;
12429;SDS011;6279;42.192;24.326;2023-02-10T03:40:38;38.97;;;17.13;;
12429;SDS011;6279;42.192;24.326;2023-02-10T03:43:04;29.47;;;11.80;;
12429;SDS011;6279;42.192;24.326;2023-02-10T03:45:30;12.97;;;7.30;;
12429;SDS011;6279;42.192;24.326;2023-02-10T03:47:55;13.40;;;7.57;;
12429;SDS011;6279;42.192;24.326;2023-02-10T03:50:21;9.43;;;6.20;;
12429;SDS011;6279;42.192;24.326;2023-02-10T03:52:46;10.07;;;5.50;;
12429;SDS011;6279;42.192;24.326;2023-02-10T03:55:11;7.77;;;5.17;;
12429;SDS011;6279;42.192;24.326;2023-02-10T03:57:42;7.37;;;4.43;;
12429;SDS011;6279;42.192;24.326;2023-02-10T04:00:08;8.27;;;5.20;;
12429;SDS011;6279;42.192;24.326;2023-02-10T04:02:34;6.80;;;4.83;;
12429;SDS011;6279;42.192;24.326;2023-02-10T04:05:02;9.43;;;5.70;;
12429;SDS011;6279;42.192;24.326;2023-02-10T04:07:28;18.57;;;9.30;;
12429;SDS011;6279;42.192;24.326;2023-02-10T04:09:55;24.87;;;12.07;;
12429;SDS011;6279;42.192;24.326;2023-02-10T04:12:21;20.30;;;10.63;;
12429;SDS011;6279;42.192;24.326;2023-02-10T04:14:46;14.33;;;7.60;;
12429;SDS011;6279;42.192;24.326;2023-02-10T04:17:12;8.77;;;5.20;;
12429;SDS011;6279;42.192;24.326;2023-02-10T04:19:37;6.33;;;4.30;;
12429;SDS011;6279;42.192;24.326;2023-02-10T04:22:03;8.03;;;4.93;;
12429;SDS011;6279;42.192;24.326;2023-02-10T04:24:28;6.97;;;4.90;;
12429;SDS011;6279;42.192;24.326;2023-02-10T04:26:53;17.07;;;9.27;;
12429;SDS011;6279;42.192;24.326;2023-02-10T04:29:19;21.57;;;11.50;;
12429;SDS011;6279;42.192;24.326;2023-02-10T04:31:44;23.87;;;14.40;;
12429;SDS011;6279;42.192;24.326;2023-02-10T04:34:10;22.33;;;10.33;;
12429;SDS011;6279;42.192;24.326;2023-02-10T04:36:35;11.13;;;6.13;;
12429;SDS011;6279;42.192;24.326;2023-02-10T04:39:01;15.33;;;7.13;;
12429;SDS011;6279;42.192;24.326;2023-02-10T04:41:26;12.10;;;6.83;;
12429;SDS011;6279;42.192;24.326;2023-02-10T04:43:51;10.67;;;5.67;;
12429;SDS011;6279;42.192;24.326;2023-02-10T04:46:17;11.13;;;5.90;;
12429;SDS011;6279;42.192;24.326;2023-02-10T04:48:43;11.40;;;6.53;;
12429;SDS011;6279;42.192;24.326;2023-02-10T04:51:09;10.80;;;6.00;;
12429;SDS011;6279;42.192;24.326;2023-02-10T04:53:36;16.20;;;8.43;;
12429;SDS011;6279;42.192;24.326;2023-02-10T04:56:02;43.77;;;18.17;;
12429;SDS011;6279;42.192;24.326;2023-02-10T04:58:29;19.40;;;9.03;;
12429;SDS011;6279;42.192;24.326;2023-02-10T05:00:55;21.80;;;9.67;;
12429;SDS011;6279;42.192;24.326;2023-02-10T05:03:21;13.00;;;6.07;;
12429;SDS011;6279;42.192;24.326;2023-02-10T05:05:46;9.63;;;5.67;;
12429;SDS011;6279;42.192;24.326;2023-02-10T05:08:12;9.53;;;5.50;;
12429;SDS011;6279;42.192;24.326;2023-02-10T05:10:38;9.17;;;5.13;;
12429;SDS011;6279;42.192;24.326;2023-02-10T05:13:03;7.63;;;5.00;;
12429;SDS011;6279;42.192;24.326;2023-02-10T05:15:28;10.33;;;6.00;;
12429;SDS011;6279;42.192;24.326;2023-02-10T05:17:54;11.10;;;5.60;;
12429;SDS011;6279;42.192;24.326;2023-02-10T05:20:19;8.83;;;5.70;;
12429;SDS011;6279;42.192;24.326;2023-02-10T05:22:45;9.40;;;6.30;;
12429;SDS011;6279;42.192;24.326;2023-02-10T05:25:10;11.17;;;6.53;;
12429;SDS011;6279;42.192;24.326;2023-02-10T05:27:35;12.90;;;5.80;;
12429;SDS011;6279;42.192;24.326;2023-02-10T05:30:02;13.93;;;7.60;;
12429;SDS011;6279;42.192;24.326;2023-02-10T05:32:29;20.13;;;10.50;;
12429;SDS011;6279;42.192;24.326;2023-02-10T05:34:54;15.90;;;8.00;;
12429;SDS011;6279;42.192;24.326;2023-02-10T05:37:19;16.90;;;9.47;;
12429;SDS011;6279;42.192;24.326;2023-02-10T05:39:45;11.67;;;6.30;;
12429;SDS011;6279;42.192;24.326;2023-02-10T05:42:10;10.97;;;6.10;;
12429;SDS011;6279;42.192;24.326;2023-02-10T05:44:36;15.17;;;5.70;;
12429;SDS011;6279;42.192;24.326;2023-02-10T05:47:01;10.47;;;5.43;;
12429;SDS011;6279;42.192;24.326;2023-02-10T05:49:27;12.90;;;5.40;;
12429;SDS011;6279;42.192;24.326;2023-02-10T05:51:52;20.03;;;9.43;;
12429;SDS011;6279;42.192;24.326;2023-02-10T05:54:18;14.27;;;7.30;;
12429;SDS011;6279;42.192;24.326;2023-02-10T05:56:43;8.70;;;5.50;;
12429;SDS011;6279;42.192;24.326;2023-02-10T05:59:09;11.67;;;6.13;;
12429;SDS011;6279;42.192;24.326;2023-02-10T06:01:39;10.73;;;6.70;;
12429;SDS011;6279;42.192;24.326;2023-02-10T06:04:05;11.43;;;6.03;;
12429;SDS011;6279;42.192;24.326;2023-02-10T06:06:30;10.67;;;5.97;;
12429;SDS011;6279;42.192;24.326;2023-02-10T06:08:56;11.40;;;6.67;;
12429;SDS011;6279;42.192;24.326;2023-02-10T06:11:21;11.60;;;7.33;;
12429;SDS011;6279;42.192;24.326;2023-02-10T06:13:47;11.80;;;7.53;;
12429;SDS011;6279;42.192;24.326;2023-02-10T06:16:12;13.10;;;7.70;;
12429;SDS011;6279;42.192;24.326;2023-02-10T06:18:37;12.37;;;7.33;;
12429;SDS011;6279;42.192;24.326;2023-02-10T06:21:03;12.10;;;6.33;;
12429;SDS011;6279;42.192;24.326;2023-02-10T06:23:28;11.97;;;6.87;;
12429;SDS011;6279;42.192;24.326;2023-02-10T06:25:54;11.80;;;6.70;;
12429;SDS011;6279;42.192;24.326;2023-02-10T06:28:26;10.03;;;5.60;;
12429;SDS011;6279;42.192;24.326;2023-02-10T06:30:52;11.47;;;6.03;;
12429;SDS011;6279;42.192;24.326;2023-02-10T06:33:18;12.67;;;6.67;;
12429;SDS011;6279;42.192;24.326;2023-02-10T06:35:44;13.13;;;6.30;;
12429;SDS011;6279;42.192;24.326;2023-02-10T06:38:10;20.63;;;11.33;;
12429;SDS011;6279;42.192;24.326;2023-02-10T06:40:36;14.63;;;8.63;;
12429;SDS011;6279;42.192;24.326;2023-02-10T06:43:01;15.30;;;9.13;;
12429;SDS011;6279;42.192;24.326;2023-02-10T06:45:30;19.83;;;9.47;;
12429;SDS011;6279;42.192;24.326;2023-02-10T06:47:56;19.00;;;10.83;;
12429;SDS011;6279;42.192;24.326;2023-02-10T06:50:21;16.87;;;9.30;;
12429;SDS011;6279;42.192;24.326;2023-02-10T06:52:47;15.60;;;9.13;;
12429;SDS011;6279;42.192;24.326;2023-02-10T06:55:13;14.53;;;9.20;;
12429;SDS011;6279;42.192;24.326;2023-02-10T06:57:39;17.30;;;10.70;;
12429;SDS011;6279;42.192;24.326;2023-02-10T07:00:05;16.60;;;10.27;;
12429;SDS011;6279;42.192;24.326;2023-02-10T07:02:32;15.27;;;10.23;;
12429;SDS011;6279;42.192;24.326;2023-02-10T07:04:58;20.97;;;11.47;;
12429;SDS011;6279;42.192;24.326;2023-02-10T07:07:24;18.13;;;10.67;;
12429;SDS011;6279;42.192;24.326;2023-02-10T07:09:50;15.63;;;9.20;;
12429;SDS011;6279;42.192;24.326;2023-02-10T07:12:18;13.03;;;8.17;;
12429;SDS011;6279;42.192;24.326;2023-02-10T07:14:44;14.90;;;8.87;;
12429;SDS011;6279;42.192;24.326;2023-02-10T07:17:09;16.93;;;9.70;;
12429;SDS011;6279;42.192;24.326;2023-02-10T07:19:35;22.73;;;13.37;;
12429;SDS011;6279;42.192;24.326;2023-02-10T07:22:00;23.67;;;16.67;;
12429;SDS011;6279;42.192;24.326;2023-02-10T07:24:29;18.33;;;12.50;;
12429;SDS011;6279;42.192;24.326;2023-02-10T07:26:55;27.30;;;18.90;;
12429;SDS011;6279;42.192;24.326;2023-02-10T07:29:21;17.40;;;11.17;;
12429;SDS011;6279;42.192;24.326;2023-02-10T07:31:47;16.27;;;10.83;;
12429;SDS011;6279;42.192;24.326;2023-02-10T07:34:12;19.00;;;11.80;;
12429;SDS011;6279;42.192;24.326;2023-02-10T07:36:37;17.23;;;11.37;;
12429;SDS011;6279;42.192;24.326;2023-02-10T07:39:03;17.37;;;10.93;;
12429;SDS011;6279;42.192;24.326;2023-02-10T07:41:28;15.23;;;10.63;;
12429;SDS011;6279;42.192;24.326;2023-02-10T07:43:53;18.97;;;12.73;;
12429;SDS011;6279;42.192;24.326;2023-02-10T07:46:19;15.07;;;9.37;;
12429;SDS011;6279;42.192;24.326;2023-02-10T07:48:44;11.70;;;7.83;;
12429;SDS011;6279;42.192;24.326;2023-02-10T07:51:09;11.37;;;8.13;;
12429;SDS011;6279;42.192;24.326;2023-02-10T07:53:35;13.63;;;9.30;;
12429;SDS011;6279;42.192;24.326;2023-02-10T07:56:02;12.17;;;9.10;;
12429;SDS011;6279;42.192;24.326;2023-02-10T07:58:28;13.80;;;8.53;;
12429;SDS011;6279;42.192;24.326;2023-02-10T08:00:55;14.63;;;9.23;;
12429;SDS011;6279;42.192;24.326;2023-02-10T08:03:20;13.07;;;9.10;;
12429;SDS011;6279;42.192;24.326;2023-02-10T08:05:46;13.63;;;9.30;;
12429;SDS011;6279;42.192;24.326;2023-02-10T08:08:14;13.30;;;9.83;;
12429;SDS011;6279;42.192;24.326;2023-02-10T08:10:40;15.63;;;10.83;;
12429;SDS011;6279;42.192;24.326;2023-02-10T08:13:06;16.10;;;10.40;;
12429;SDS011;6279;42.192;24.326;2023-02-10T08:15:32;12.83;;;10.70;;
12429;SDS011;6279;42.192;24.326;2023-02-10T08:17:58;12.70;;;10.03;;
12429;SDS011;6279;42.192;24.326;2023-02-10T08:20:24;15.57;;;10.53;;
12429;SDS011;6279;42.192;24.326;2023-02-10T08:22:53;13.73;;;10.13;;
12429;SDS011;6279;42.192;24.326;2023-02-10T08:25:22;14.40;;;10.83;;
12429;SDS011;6279;42.192;24.326;2023-02-10T08:27:47;18.27;;;13.03;;
12429;SDS011;6279;42.192;24.326;2023-02-10T08:30:13;14.67;;;10.30;;
12429;SDS011;6279;42.192;24.326;2023-02-10T08:32:38;12.83;;;10.17;;
12429;SDS011;6279;42.192;24.326;2023-02-10T08:35:04;12.40;;;9.57;;
12429;SDS011;6279;42.192;24.326;2023-02-10T08:37:30;13.10;;;9.40;;
12429;SDS011;6279;42.192;24.326;2023-02-10T08:39:56;12.33;;;9.40;;
12429;SDS011;6279;42.192;24.326;2023-02-10T08:42:23;13.37;;;9.47;;
12429;SDS011;6279;42.192;24.326;2023-02-10T08:44:49;12.77;;;9.87;;
12429;SDS011;6279;42.192;24.326;2023-02-10T08:47:14;12.77;;;10.13;;
12429;SDS011;6279;42.192;24.326;2023-02-10T08:49:40;13.00;;;9.40;;
12429;SDS011;6279;42.192;24.326;2023-02-10T08:52:06;13.70;;;9.13;;
12429;SDS011;6279;42.192;24.326;2023-02-10T08:54:33;12.60;;;8.80;;
12429;SDS011;6279;42.192;24.326;2023-02-10T08:56:58;13.53;;;9.60;;
12429;SDS011;6279;42.192;24.326;2023-02-10T08:59:23;13.63;;;9.50;;
12429;SDS011;6279;42.192;24.326;2023-02-10T09:01:49;12.70;;;9.30;;
12429;SDS011;6279;42.192;24.326;2023-02-10T09:04:15;10.67;;;8.07;;
12429;SDS011;6279;42.192;24.326;2023-02-10T09:06:41;11.47;;;8.30;;
12429;SDS011;6279;42.192;24.326;2023-02-10T09:09:12;11.70;;;8.70;;
12429;SDS011;6279;42.192;24.326;2023-02-10T09:11:39;10.43;;;7.83;;
12429;SDS011;6279;42.192;24.326;2023-02-10T09:14:06;12.00;;;8.00;;
12429;SDS011;6279;42.192;24.326;2023-02-10T09:16:32;10.43;;;8.63;;
12429;SDS011;6279;42.192;24.326;2023-02-10T09:18:58;10.87;;;8.03;;
12429;SDS011;6279;42.192;24.326;2023-02-10T09:21:32;10.67;;;7.50;;
12429;SDS011;6279;42.192;24.326;2023-02-10T09:23:58;10.30;;;7.53;;
12429;SDS011;6279;42.192;24.326;2023-02-10T09:26:23;9.23;;;6.47;;
12429;SDS011;6279;42.192;24.326;2023-02-10T09:28:48;10.83;;;7.50;;
12429;SDS011;6279;42.192;24.326;2023-02-10T09:31:14;10.67;;;7.60;;
12429;SDS011;6279;42.192;24.326;2023-02-10T09:33:40;10.70;;;8.40;;
12429;SDS011;6279;42.192;24.326;2023-02-10T09:36:07;14.13;;;9.33;;
12429;SDS011;6279;42.192;24.326;2023-02-10T09:38:37;12.27;;;8.77;;
12429;SDS011;6279;42.192;24.326;2023-02-10T09:41:12;16.13;;;10.33;;
12429;SDS011;6279;42.192;24.326;2023-02-10T09:46:26;9.97;;;8.23;;
12429;SDS011;6279;42.192;24.326;2023-02-10T09:54:35;9.87;;;7.13;;
12429;SDS011;6279;42.192;24.326;2023-02-10T09:57:05;9.17;;;7.37;;
12429;SDS011;6279;42.192;24.326;2023-02-10T09:59:36;10.20;;;7.50;;
12429;SDS011;6279;42.192;24.326;2023-02-10T10:02:24;11.13;;;8.37;;
12429;SDS011;6279;42.192;24.326;2023-02-10T10:04:55;10.80;;;7.57;;
12429;SDS011;6279;42.192;24.326;2023-02-10T10:07:35;11.30;;;6.90;;
12429;SDS011;6279;42.192;24.326;2023-02-10T10:10:09;11.37;;;7.10;;
12429;SDS011;6279;42.192;24.326;2023-02-10T10:12:40;10.23;;;7.80;;
12429;SDS011;6279;42.192;24.326;2023-02-10T10:15:15;9.70;;;7.37;;
12429;SDS011;6279;42.192;24.326;2023-02-10T10:25:56;11.43;;;7.47;;
12429;SDS011;6279;42.192;24.326;2023-02-10T10:31:13;11.70;;;7.37;;
12429;SDS011;6279;42.192;24.326;2023-02-10T10:36:17;14.50;;;8.13;;
12429;SDS011;6279;42.192;24.326;2023-02-10T10:41:51;12.53;;;9.10;;
12429;SDS011;6279;42.192;24.326;2023-02-10T10:44:18;13.20;;;8.40;;
12429;SDS011;6279;42.192;24.326;2023-02-10T10:46:45;12.17;;;8.17;;
12429;SDS011;6279;42.192;24.326;2023-02-10T10:49:12;13.20;;;8.47;;
12429;SDS011;6279;42.192;24.326;2023-02-10T10:51:38;11.93;;;7.63;;
12429;SDS011;6279;42.192;24.326;2023-02-10T10:54:04;11.40;;;7.67;;
12429;SDS011;6279;42.192;24.326;2023-02-10T10:56:35;11.40;;;7.73;;
12429;SDS011;6279;42.192;24.326;2023-02-10T10:59:12;12.07;;;8.40;;
12429;SDS011;6279;42.192;24.326;2023-02-10T11:01:45;11.63;;;8.30;;
12429;SDS011;6279;42.192;24.326;2023-02-10T11:04:16;12.10;;;8.20;;
12429;SDS011;6279;42.192;24.326;2023-02-10T11:06:45;10.97;;;7.93;;
12429;SDS011;6279;42.192;24.326;2023-02-10T11:09:34;12.57;;;8.03;;
12429;SDS011;6279;42.192;24.326;2023-02-10T11:12:07;12.77;;;7.57;;
12429;SDS011;6279;42.192;24.326;2023-02-10T11:14:44;12.57;;;7.90;;
12429;SDS011;6279;42.192;24.326;2023-02-10T11:17:45;16.50;;;8.97;;
12429;SDS011;6279;42.192;24.326;2023-02-10T11:22:36;11.83;;;7.93;;
12429;SDS011;6279;42.192;24.326;2023-02-10T11:25:05;12.30;;;8.77;;
12429;SDS011;6279;42.192;24.326;2023-02-10T11:27:53;12.57;;;7.87;;
12429;SDS011;6279;42.192;24.326;2023-02-10T11:30:27;12.13;;;7.80;;
12429;SDS011;6279;42.192;24.326;2023-02-10T11:32:55;11.43;;;7.47;;
12429;SDS011;6279;42.192;24.326;2023-02-10T11:35:21;12.37;;;7.27;;
12429;SDS011;6279;42.192;24.326;2023-02-10T11:37:56;9.97;;;7.07;;
12429;SDS011;6279;42.192;24.326;2023-02-10T11:40:26;10.73;;;7.57;;
12429;SDS011;6279;42.192;24.326;2023-02-10T11:42:55;11.73;;;8.10;;
12429;SDS011;6279;42.192;24.326;2023-02-10T11:45:24;13.23;;;7.63;;
12429;SDS011;6279;42.192;24.326;2023-02-10T11:50:31;11.13;;;7.30;;
12429;SDS011;6279;42.192;24.326;2023-02-10T11:52:58;13.10;;;7.53;;
12429;SDS011;6279;42.192;24.326;2023-02-10T11:55:31;12.63;;;8.17;;
12429;SDS011;6279;42.192;24.326;2023-02-10T11:58:37;13.33;;;8.37;;
12429;SDS011;6279;42.192;24.326;2023-02-10T12:09:36;14.13;;;8.73;;
12429;SDS011;6279;42.192;24.326;2023-02-10T12:15:29;12.00;;;7.33;;
12429;SDS011;6279;42.192;24.326;2023-02-10T12:29:29;12.20;;;8.77;;
12429;SDS011;6279;42.192;24.326;2023-02-10T12:32:36;18.87;;;8.77;;
12429;SDS011;6279;42.192;24.326;2023-02-10T12:35:28;13.97;;;8.63;;
12429;SDS011;6279;42.192;24.326;2023-02-10T12:46:01;20.97;;;10.97;;
12429;SDS011;6279;42.192;24.326;2023-02-10T12:48:44;23.17;;;9.40;;
12429;SDS011;6279;42.192;24.326;2023-02-10T12:51:39;15.90;;;9.70;;
12429;SDS011;6279;42.192;24.326;2023-02-10T12:54:10;30.90;;;15.53;;
12429;SDS011;6279;42.192;24.326;2023-02-10T12:56:46;17.80;;;10.70;;
12429;SDS011;6279;42.192;24.326;2023-02-10T12:59:37;16.77;;;8.73;;
12429;SDS011;6279;42.192;24.326;2023-02-10T13:02:16;15.03;;;8.07;;
12429;SDS011;6279;42.192;24.326;2023-02-10T13:04:47;14.03;;;8.90;;
12429;SDS011;6279;42.192;24.326;2023-02-10T13:07:25;11.70;;;8.03;;
12429;SDS011;6279;42.192;24.326;2023-02-10T13:12:29;15.97;;;8.40;;
12429;SDS011;6279;42.192;24.326;2023-02-10T13:15:02;14.40;;;8.53;;
12429;SDS011;6279;42.192;24.326;2023-02-10T13:17:41;13.13;;;7.47;;
12429;SDS011;6279;42.192;24.326;2023-02-10T13:23:47;10.43;;;6.20;;
12429;SDS011;6279;42.192;24.326;2023-02-10T13:34:40;10.20;;;7.07;;
12429;SDS011;6279;42.192;24.326;2023-02-10T13:37:31;13.77;;;7.13;;
12429;SDS011;6279;42.192;24.326;2023-02-10T13:40:03;8.50;;;6.20;;
12429;SDS011;6279;42.192;24.326;2023-02-10T13:42:38;15.83;;;6.80;;
12429;SDS011;6279;42.192;24.326;2023-02-10T14:00:29;8.87;;;5.20;;
12429;SDS011;6279;42.192;24.326;2023-02-10T14:05:36;9.17;;;5.67;;
12429;SDS011;6279;42.192;24.326;2023-02-10T14:08:32;7.70;;;5.13;;
12429;SDS011;6279;42.192;24.326;2023-02-10T14:11:02;9.67;;;5.47;;
12429;SDS011;6279;42.192;24.326;2023-02-10T14:14:02;8.77;;;5.43;;
12429;SDS011;6279;42.192;24.326;2023-02-10T14:16:28;7.20;;;5.00;;
12429;SDS011;6279;42.192;24.326;2023-02-10T14:19:00;11.67;;;7.60;;
12429;SDS011;6279;42.192;24.326;2023-02-10T14:21:42;8.43;;;4.63;;
12429;SDS011;6279;42.192;24.326;2023-02-10T14:24:18;8.80;;;4.80;;
12429;SDS011;6279;42.192;24.326;2023-02-10T14:26:48;8.93;;;5.70;;
12429;SDS011;6279;42.192;24.326;2023-02-10T14:29:15;14.20;;;5.60;;
12429;SDS011;6279;42.192;24.326;2023-02-10T14:31:42;8.70;;;6.23;;
12429;SDS011;6279;42.192;24.326;2023-02-10T14:34:21;7.97;;;5.40;;
12429;SDS011;6279;42.192;24.326;2023-02-10T14:36:53;10.30;;;6.13;;
12429;SDS011;6279;42.192;24.326;2023-02-10T14:39:20;8.30;;;5.17;;
12429;SDS011;6279;42.192;24.326;2023-02-10T14:41:47;9.83;;;5.43;;
12429;SDS011;6279;42.192;24.326;2023-02-10T14:44:18;7.20;;;4.83;;
12429;SDS011;6279;42.192;24.326;2023-02-10T14:46:47;6.87;;;4.70;;
12429;SDS011;6279;42.192;24.326;2023-02-10T14:49:13;10.67;;;6.00;;
12429;SDS011;6279;42.192;24.326;2023-02-10T14:51:43;8.53;;;5.73;;
12429;SDS011;6279;42.192;24.326;2023-02-10T14:54:13;10.67;;;4.93;;
12429;SDS011;6279;42.192;24.326;2023-02-10T14:56:49;8.97;;;5.60;;
12429;SDS011;6279;42.192;24.326;2023-02-10T14:59:29;10.67;;;5.70;;
12429;SDS011;6279;42.192;24.326;2023-02-10T15:01:59;8.90;;;5.83;;
12429;SDS011;6279;42.192;24.326;2023-02-10T15:04:29;12.67;;;6.47;;
12429;SDS011;6279;42.192;24.326;2023-02-10T15:06:56;32.83;;;16.60;;
12429;SDS011;6279;42.192;24.326;2023-02-10T15:09:43;14.73;;;7.77;;
12429;SDS011;6279;42.192;24.326;2023-02-10T15:12:09;9.10;;;5.67;;
12429;SDS011;6279;42.192;24.326;2023-02-10T15:17:20;10.27;;;6.93;;
12429;SDS011;6279;42.192;24.326;2023-02-10T15:19:54;20.63;;;8.57;;
12429;SDS011;6279;42.192;24.326;2023-02-10T15:22:37;17.60;;;8.90;;
12429;SDS011;6279;42.192;24.326;2023-02-10T15:33:10;19.93;;;12.47;;
12429;SDS011;6279;42.192;24.326;2023-02-10T15:35:50;15.33;;;10.47;;
12429;SDS011;6279;42.192;24.326;2023-02-10T15:38:17;17.27;;;10.37;;
12429;SDS011;6279;42.192;24.326;2023-02-10T15:40:42;19.20;;;11.27;;
12429;SDS011;6279;42.192;24.326;2023-02-10T15:43:23;17.27;;;11.43;;
12429;SDS011;6279;42.192;24.326;2023-02-10T15:45:51;20.27;;;12.27;;
12429;SDS011;6279;42.192;24.326;2023-02-10T15:48:21;33.00;;;15.90;;
12429;SDS011;6279;42.192;24.326;2023-02-10T15:50:47;31.37;;;17.00;;
12429;SDS011;6279;42.192;24.326;2023-02-10T15:53:18;25.40;;;16.20;;
12429;SDS011;6279;42.192;24.326;2023-02-10T15:55:46;30.90;;;15.33;;
12429;SDS011;6279;42.192;24.326;2023-02-10T15:58:12;27.67;;;15.20;;
12429;SDS011;6279;42.192;24.326;2023-02-10T16:00:38;28.77;;;14.93;;
12429;SDS011;6279;42.192;24.326;2023-02-10T16:03:07;24.87;;;14.30;;
12429;SDS011;6279;42.192;24.326;2023-02-10T16:05:33;39.70;;;20.37;;
12429;SDS011;6279;42.192;24.326;2023-02-10T16:08:03;36.20;;;21.40;;
12429;SDS011;6279;42.192;24.326;2023-02-10T16:10:31;31.17;;;18.83;;
12429;SDS011;6279;42.192;24.326;2023-02-10T16:12:57;37.30;;;19.13;;
12429;SDS011;6279;42.192;24.326;2023-02-10T16:15:23;44.37;;;22.03;;
12429;SDS011;6279;42.192;24.326;2023-02-10T16:17:51;52.77;;;28.63;;
12429;SDS011;6279;42.192;24.326;2023-02-10T16:20:23;45.47;;;26.50;;
12429;SDS011;6279;42.192;24.326;2023-02-10T16:22:51;52.80;;;26.57;;
12429;SDS011;6279;42.192;24.326;2023-02-10T16:25:18;49.17;;;26.50;;
12429;SDS011;6279;42.192;24.326;2023-02-10T16:27:45;35.33;;;22.67;;
12429;SDS011;6279;42.192;24.326;2023-02-10T16:30:29;48.53;;;28.20;;
12429;SDS011;6279;42.192;24.326;2023-02-10T16:32:55;69.63;;;35.83;;
12429;SDS011;6279;42.192;24.326;2023-02-10T16:35:21;46.33;;;26.53;;
12429;SDS011;6279;42.192;24.326;2023-02-10T16:37:48;48.60;;;27.33;;
12429;SDS011;6279;42.192;24.326;2023-02-10T16:40:23;41.83;;;26.03;;
12429;SDS011;6279;42.192;24.326;2023-02-10T16:42:49;52.43;;;27.13;;
12429;SDS011;6279;42.192;24.326;2023-02-10T16:45:17;51.23;;;28.93;;
12429;SDS011;6279;42.192;24.326;2023-02-10T16:47:43;49.10;;;29.10;;
12429;SDS011;6279;42.192;24.326;2023-02-10T16:50:13;68.50;;;37.67;;
12429;SDS011;6279;42.192;24.326;2023-02-10T16:52:45;108.03;;;51.97;;